createdAt,value
2023-02-08T00:02:46.347Z,13.80
2023-02-08T00:05:49.049Z,13.67
2023-02-08T00:08:51.672Z,13.80
2023-02-08T00:11:54.261Z,14.03
2023-02-08T00:14:58.207Z,13.70
2023-02-08T00:18:00.845Z,12.57
2023-02-08T00:21:08.724Z,13.53
2023-02-08T00:24:11.438Z,14.13
2023-02-08T00:27:14.031Z,13.50
2023-02-08T00:30:18.062Z,13.30
2023-02-08T00:33:20.682Z,12.77
2023-02-08T00:36:23.273Z,12.83
2023-02-08T00:39:25.891Z,13.27
2023-02-08T00:42:28.475Z,14.17
2023-02-08T00:45:33.802Z,13.77
2023-02-08T00:48:36.684Z,13.60
2023-02-08T00:51:39.442Z,13.13
2023-02-08T00:54:42.677Z,12.40
2023-02-08T00:57:45.292Z,14.10
2023-02-08T01:00:51.941Z,13.97
2023-02-08T01:03:54.597Z,13.77
2023-02-08T01:06:57.227Z,13.93
2023-02-08T01:10:00.590Z,13.07
2023-02-08T01:13:03.224Z,13.80
2023-02-08T01:16:13.452Z,14.33
2023-02-08T01:19:18.419Z,14.20
2023-02-08T01:22:20.982Z,13.07
2023-02-08T01:25:23.627Z,13.93
2023-02-08T01:28:26.377Z,12.77
2023-02-08T01:31:32.514Z,12.97
2023-02-08T01:34:35.130Z,13.37
2023-02-08T01:37:37.755Z,13.70
2023-02-08T01:40:40.660Z,13.37
2023-02-08T01:44:02.410Z,13.87
2023-02-08T01:47:06.407Z,13.50
2023-02-08T01:50:09.974Z,13.53
2023-02-08T01:53:13.450Z,13.70
2023-02-08T01:56:21.556Z,14.00
2023-02-08T01:59:28.096Z,14.03
2023-02-08T02:02:32.285Z,13.73
2023-02-08T02:05:41.118Z,13.87
2023-02-08T02:08:50.320Z,14.23
2023-02-08T02:11:55.340Z,13.77
2023-02-08T02:14:57.963Z,14.70
2023-02-08T02:18:02.691Z,14.47
2023-02-08T02:21:22.096Z,14.03
2023-02-08T02:24:54.616Z,15.10
2023-02-08T02:28:29.425Z,14.30
2023-02-08T02:32:05.053Z,13.37
2023-02-08T02:35:16.507Z,13.93
2023-02-08T02:38:29.543Z,14.13
2023-02-08T02:41:59.293Z,14.20
2023-02-08T02:45:13.720Z,14.70
2023-02-08T02:48:23.791Z,14.33
2023-02-08T02:51:29.730Z,13.90
2023-02-08T02:54:38.330Z,13.73
2023-02-08T02:57:45.306Z,13.97
2023-02-08T03:00:54.103Z,13.90
2023-02-08T03:03:58.813Z,14.20
2023-02-08T03:07:11.474Z,14.20
2023-02-08T03:10:25.991Z,13.27
2023-02-08T03:13:37.326Z,13.43
2023-02-08T03:16:54.889Z,13.73
2023-02-08T03:20:08.143Z,13.20
2023-02-08T03:23:16.070Z,13.00
2023-02-08T03:26:24.478Z,13.50
2023-02-08T03:29:40.720Z,13.03
2023-02-08T03:32:47.879Z,14.73
2023-02-08T03:35:57.337Z,13.63
2023-02-08T03:39:03.371Z,13.10
2023-02-08T03:42:12.288Z,13.10
2023-02-08T03:45:19.701Z,13.37
2023-02-08T03:48:25.473Z,12.57
2023-02-08T03:51:32.691Z,13.17
2023-02-08T03:54:39.555Z,13.37
2023-02-08T03:57:49.164Z,12.27
2023-02-08T04:00:58.220Z,12.77
2023-02-08T04:04:01.884Z,13.20
2023-02-08T04:07:06.135Z,14.13
2023-02-08T04:10:09.454Z,13.27
2023-02-08T04:13:12.093Z,14.20
2023-02-08T04:16:14.989Z,12.83
2023-02-08T04:19:17.580Z,14.20
2023-02-08T04:22:21.587Z,13.60
2023-02-08T04:25:24.304Z,12.77
2023-02-08T04:28:26.996Z,13.50
2023-02-08T04:31:29.792Z,13.77
2023-02-08T04:34:32.483Z,13.50
2023-02-08T04:37:36.439Z,12.80
2023-02-08T04:40:39.403Z,12.97
2023-02-08T04:43:42.257Z,13.63
2023-02-08T04:46:44.884Z,13.63
2023-02-08T04:49:47.549Z,13.87
2023-02-08T04:52:51.475Z,14.13
2023-02-08T04:55:54.157Z,14.73
2023-02-08T04:58:56.795Z,14.23
2023-02-08T05:02:00.390Z,14.43
2023-02-08T05:05:03.057Z,14.43
2023-02-08T05:08:07.131Z,13.80
2023-02-08T05:11:09.830Z,14.10
2023-02-08T05:14:12.446Z,13.87
2023-02-08T05:17:15.272Z,14.10
2023-02-08T05:20:18.016Z,13.40
2023-02-08T05:23:21.961Z,14.30
2023-02-08T05:26:24.539Z,14.03
2023-02-08T05:29:27.250Z,14.47
2023-02-08T05:32:29.956Z,15.20
2023-02-08T05:35:32.584Z,15.27
2023-02-08T05:38:36.569Z,14.77
2023-02-08T05:41:39.159Z,16.40
2023-02-08T05:44:42.126Z,15.27
2023-02-08T05:47:47.307Z,15.20
2023-02-08T05:50:49.955Z,13.90
2023-02-08T05:53:53.907Z,15.17
2023-02-08T05:56:56.490Z,13.97
2023-02-08T05:59:59.197Z,15.30
2023-02-08T06:03:01.885Z,15.30
2023-02-08T06:06:05.183Z,14.77
2023-02-08T06:09:09.138Z,14.27
2023-02-08T06:12:11.752Z,15.60
2023-02-08T06:15:14.441Z,16.23
2023-02-08T06:18:17.064Z,16.57
2023-02-08T06:21:19.686Z,19.10
2023-02-08T06:24:25.198Z,18.47
2023-02-08T06:27:27.888Z,20.13
2023-02-08T06:30:30.479Z,22.43
2023-02-08T06:33:33.268Z,22.23
2023-02-08T06:36:35.857Z,21.63
2023-02-08T06:39:39.801Z,21.47
2023-02-08T06:42:42.961Z,23.43
2023-02-08T06:45:46.074Z,22.13
2023-02-08T06:48:48.666Z,21.37
2023-02-08T06:51:51.317Z,22.43
2023-02-08T06:54:55.245Z,22.10
2023-02-08T06:57:58.059Z,21.20
2023-02-08T07:01:00.690Z,22.10
2023-02-08T07:04:03.382Z,23.90
2023-02-08T07:07:05.954Z,22.97
2023-02-08T07:10:10.273Z,23.17
2023-02-08T07:13:12.866Z,22.80
2023-02-08T07:16:15.858Z,21.83
2023-02-08T07:19:18.523Z,22.70
2023-02-08T07:22:21.304Z,22.47
2023-02-08T07:25:25.232Z,24.77
2023-02-08T07:28:28.404Z,24.23
2023-02-08T07:31:31.055Z,23.67
2023-02-08T07:34:36.124Z,24.10
2023-02-08T07:37:38.707Z,24.17
2023-02-08T07:40:42.898Z,24.80
2023-02-08T07:43:45.580Z,23.47
2023-02-08T07:46:48.172Z,24.53
2023-02-08T07:49:50.771Z,23.33
2023-02-08T07:52:53.335Z,25.90
2023-02-08T07:55:57.444Z,24.33
2023-02-08T07:59:00.189Z,23.50
2023-02-08T08:02:02.855Z,24.37
2023-02-08T08:05:05.760Z,24.77
2023-02-08T08:08:08.445Z,24.40
2023-02-08T08:11:12.355Z,23.27
2023-02-08T08:14:15.026Z,23.83
2023-02-08T08:17:18.012Z,23.30
2023-02-08T08:20:20.659Z,22.87
2023-02-08T08:23:23.848Z,23.47
2023-02-08T08:26:27.903Z,23.13
2023-02-08T08:29:32.381Z,23.30
2023-02-08T08:32:34.981Z,23.93
2023-02-08T08:35:37.656Z,24.33
2023-02-08T08:38:40.997Z,22.57
2023-02-08T08:41:44.964Z,22.53
2023-02-08T08:44:47.573Z,21.57
2023-02-08T08:47:50.188Z,21.93
2023-02-08T08:50:54.990Z,21.23
2023-02-08T08:53:57.576Z,21.13
2023-02-08T08:57:01.808Z,22.50
2023-02-08T09:00:05.627Z,22.03
2023-02-08T09:03:08.299Z,22.13
2023-02-08T09:06:10.919Z,20.53
2023-02-08T09:09:13.523Z,21.40
2023-02-08T09:12:17.491Z,22.10
2023-02-08T09:15:20.201Z,20.37
2023-02-08T09:18:22.808Z,21.53
2023-02-08T09:21:26.165Z,20.73
2023-02-08T09:24:28.834Z,20.93
2023-02-08T09:27:32.741Z,20.57
2023-02-08T09:30:35.397Z,21.47
2023-02-08T09:33:37.978Z,20.60
2023-02-08T09:36:42.196Z,20.87
2023-02-08T09:39:44.971Z,20.03
2023-02-08T09:42:55.835Z,20.73
2023-02-08T09:46:05.376Z,18.97
2023-02-08T09:49:15.448Z,20.37
2023-02-08T09:52:24.082Z,18.93
2023-02-08T09:55:38.274Z,19.73
2023-02-08T09:58:45.116Z,18.90
2023-02-08T10:01:50.403Z,18.27
2023-02-08T10:05:01.200Z,18.60
2023-02-08T10:08:03.847Z,18.20
2023-02-08T10:11:24.210Z,17.40
2023-02-08T10:14:49.687Z,19.03
2023-02-08T10:18:10.552Z,19.37
2023-02-08T10:21:28.850Z,17.87
2023-02-08T10:24:47.731Z,18.07
2023-02-08T10:28:03.629Z,18.70
2023-02-08T10:31:18.660Z,18.60
2023-02-08T10:34:30.453Z,18.30
2023-02-08T10:37:35.458Z,18.13
2023-02-08T10:40:41.067Z,18.60
2023-02-08T10:43:47.574Z,18.43
2023-02-08T10:47:02.550Z,17.90
2023-02-08T10:50:11.142Z,17.47
2023-02-08T10:53:16.762Z,17.70
2023-02-08T10:56:36.088Z,18.13
2023-02-08T10:59:49.200Z,17.67
2023-02-08T11:02:54.325Z,17.73
2023-02-08T11:05:57.131Z,18.20
2023-02-08T11:08:59.864Z,18.97
2023-02-08T11:12:03.380Z,18.10
2023-02-08T11:15:06.332Z,17.43
2023-02-08T11:18:23.534Z,17.73
2023-02-08T11:21:30.161Z,17.27
2023-02-08T11:24:40.018Z,17.40
2023-02-08T11:27:49.567Z,17.17
2023-02-08T11:31:03.466Z,17.40
2023-02-08T11:34:09.198Z,18.10
2023-02-08T11:37:17.668Z,17.13
2023-02-08T11:40:23.995Z,17.57
2023-02-08T11:43:30.072Z,17.90
2023-02-08T11:46:35.814Z,17.17
2023-02-08T11:49:41.773Z,17.83
2023-02-08T11:52:46.152Z,17.17
2023-02-08T11:56:03.555Z,15.97
2023-02-08T11:59:19.799Z,16.50
2023-02-08T12:02:32.525Z,16.30
2023-02-08T12:05:45.097Z,16.43
2023-02-08T12:08:54.151Z,14.17
2023-02-08T12:12:08.979Z,14.27
2023-02-08T12:15:23.786Z,13.70
2023-02-08T12:18:49.140Z,13.23
2023-02-08T12:21:59.103Z,13.70
2023-02-08T12:25:20.412Z,13.67
2023-02-08T12:28:32.340Z,12.33
2023-02-08T12:31:47.232Z,12.63
2023-02-08T12:35:05.564Z,11.20
2023-02-08T12:38:38.046Z,11.17
2023-02-08T12:41:49.653Z,10.67
2023-02-08T12:45:09.918Z,9.77
2023-02-08T12:48:28.844Z,10.93
2023-02-08T12:51:40.385Z,10.47
2023-02-08T12:54:50.372Z,10.73
2023-02-08T12:57:58.156Z,9.67
2023-02-08T13:01:08.965Z,10.27
2023-02-08T13:04:16.436Z,10.07
2023-02-08T13:07:25.075Z,10.67
2023-02-08T13:10:34.403Z,10.87
2023-02-08T13:13:40.604Z,11.03
2023-02-08T13:16:47.736Z,10.33
2023-02-08T13:20:00.545Z,10.70
2023-02-08T13:23:08.943Z,10.07
2023-02-08T13:26:16.505Z,11.03
2023-02-08T13:29:21.477Z,9.97
2023-02-08T13:32:30.091Z,10.40
2023-02-08T13:35:33.525Z,10.67
2023-02-08T13:38:37.882Z,10.97
2023-02-08T13:41:53.513Z,9.87
2023-02-08T13:44:59.070Z,10.67
2023-02-08T13:48:03.560Z,10.73
2023-02-08T13:51:07.931Z,11.23
2023-02-08T13:54:12.997Z,11.03
2023-02-08T13:57:53.711Z,10.77
2023-02-08T14:01:13.642Z,10.73
2023-02-08T14:04:33.759Z,11.27
2023-02-08T14:07:44.559Z,11.80
2023-02-08T14:11:01.310Z,11.20
2023-02-08T14:14:13.760Z,12.57
2023-02-08T14:17:21.553Z,12.40
2023-02-08T14:20:30.450Z,11.53
2023-02-08T14:23:39.467Z,12.00
2023-02-08T14:26:43.151Z,11.90
2023-02-08T14:29:56.769Z,13.53
2023-02-08T14:33:17.225Z,14.40
2023-02-08T14:36:28.720Z,13.17
2023-02-08T14:39:34.518Z,14.77
2023-02-08T14:42:56.291Z,13.83
2023-02-08T14:46:38.410Z,13.33
2023-02-08T14:49:45.602Z,13.43
2023-02-08T14:52:53.852Z,14.00
2023-02-08T14:56:02.106Z,13.73
2023-02-08T14:59:08.970Z,13.83
2023-02-08T15:02:17.093Z,13.80
2023-02-08T15:05:26.685Z,13.20
2023-02-08T15:08:29.342Z,12.40
2023-02-08T15:11:34.205Z,12.63
2023-02-08T15:14:40.727Z,12.23
2023-02-08T15:17:47.523Z,14.83
2023-02-08T15:21:02.090Z,12.93
2023-02-08T15:24:14.152Z,11.53
2023-02-08T15:27:22.001Z,13.00
2023-02-08T15:30:26.398Z,11.73
2023-02-08T15:33:29.397Z,12.50
2023-02-08T15:36:34.753Z,12.47
2023-02-08T15:39:39.741Z,12.67
2023-02-08T15:42:45.079Z,12.37
2023-02-08T15:45:57.489Z,11.60
2023-02-08T15:49:00.706Z,12.20
2023-02-08T15:52:06.572Z,12.03
2023-02-08T15:55:13.497Z,11.57
2023-02-08T15:58:28.443Z,11.13
2023-02-08T16:01:32.451Z,12.40
2023-02-08T16:04:43.485Z,11.57
2023-02-08T16:07:48.774Z,11.80
2023-02-08T16:10:54.743Z,11.27
2023-02-08T16:13:59.485Z,12.52
2023-02-08T16:17:02.125Z,11.53
2023-02-08T16:20:22.658Z,11.07
2023-02-08T16:23:28.760Z,10.90
2023-02-08T16:26:35.431Z,10.73
2023-02-08T16:29:40.115Z,11.23
2023-02-08T16:32:42.756Z,12.80
2023-02-08T16:35:45.404Z,10.83
2023-02-08T16:39:24.292Z,10.80
2023-02-08T16:42:33.775Z,10.87
2023-02-08T16:45:36.443Z,11.57
2023-02-08T16:48:40.854Z,11.17
2023-02-08T16:51:45.041Z,10.63
2023-02-08T16:54:49.055Z,11.13
2023-02-08T16:57:53.274Z,10.83
2023-02-08T17:00:57.635Z,10.97
2023-02-08T17:04:00.341Z,11.73
2023-02-08T17:07:03.033Z,12.00
2023-02-08T17:10:09.533Z,11.90
2023-02-08T17:13:20.470Z,13.23
2023-02-08T17:16:26.726Z,13.57
2023-02-08T17:19:29.360Z,14.60
2023-02-08T17:22:31.932Z,14.27
2023-02-08T17:25:36.531Z,15.57
2023-02-08T17:28:39.567Z,15.20
2023-02-08T17:31:42.199Z,14.20
2023-02-08T17:34:44.824Z,14.37
2023-02-08T17:37:49.429Z,15.10
2023-02-08T17:40:53.388Z,14.70
2023-02-08T17:43:57.711Z,15.73
2023-02-08T17:47:00.302Z,16.03
2023-02-08T17:50:03.439Z,15.63
2023-02-08T17:53:06.032Z,16.07
2023-02-08T17:56:11.267Z,16.53
2023-02-08T17:59:13.888Z,17.17
2023-02-08T18:02:16.500Z,18.07
2023-02-08T18:05:22.137Z,18.40
2023-02-08T18:08:24.789Z,18.13
2023-02-08T18:11:28.729Z,18.20
2023-02-08T18:14:31.327Z,17.80
2023-02-08T18:17:34.654Z,19.10
2023-02-08T18:20:37.318Z,18.87
2023-02-08T18:23:40.472Z,18.73
2023-02-08T18:26:44.412Z,18.43
2023-02-08T18:29:47.160Z,18.33
2023-02-08T18:32:49.757Z,20.43
2023-02-08T18:35:52.332Z,19.17
2023-02-08T18:38:55.726Z,19.93
2023-02-08T18:41:59.778Z,20.80
2023-02-08T18:45:02.364Z,20.37
2023-02-08T18:48:04.941Z,21.33
2023-02-08T18:51:09.935Z,21.20
2023-02-08T18:54:14.199Z,21.20
2023-02-08T18:57:18.241Z,20.77
2023-02-08T19:00:21.907Z,20.83
2023-02-08T19:03:24.493Z,20.50
2023-02-08T19:06:28.778Z,20.67
2023-02-08T19:09:31.394Z,21.53
2023-02-08T19:12:37.195Z,21.23
2023-02-08T19:15:41.238Z,25.43
2023-02-08T19:18:44.084Z,28.37
2023-02-08T19:21:46.692Z,23.60
2023-02-08T19:24:49.404Z,22.57
2023-02-08T19:27:53.376Z,24.73
2023-02-08T19:31:03.665Z,21.53
2023-02-08T19:34:06.885Z,21.40
2023-02-08T19:37:09.476Z,21.70
2023-02-08T19:40:13.226Z,21.70
2023-02-08T19:43:17.146Z,20.93
2023-02-08T19:46:22.356Z,22.60
2023-02-08T19:49:27.165Z,20.57
2023-02-08T19:52:29.787Z,21.53
2023-02-08T19:55:32.385Z,21.03
2023-02-08T19:58:37.862Z,19.97
2023-02-08T20:01:40.440Z,21.57
2023-02-08T20:04:43.072Z,21.23
2023-02-08T20:07:45.650Z,21.27
2023-02-08T20:10:49.299Z,21.93
2023-02-08T20:13:55.240Z,21.53
2023-02-08T20:16:58.314Z,21.53
2023-02-08T20:20:00.893Z,22.17
2023-02-08T20:23:14.064Z,21.53
2023-02-08T20:26:25.302Z,21.77
2023-02-08T20:29:29.743Z,21.83
2023-02-08T20:32:32.342Z,21.67
2023-02-08T20:35:36.953Z,20.90
2023-02-08T20:38:40.283Z,21.60
2023-02-08T20:41:44.256Z,21.20
2023-02-08T20:44:48.245Z,22.70
2023-02-08T20:47:50.876Z,21.87
2023-02-08T20:50:53.486Z,22.03
2023-02-08T20:53:58.216Z,21.47
2023-02-08T20:57:00.808Z,22.23
2023-02-08T21:00:05.675Z,23.67
2023-02-08T21:03:08.261Z,22.30
2023-02-08T21:06:14.784Z,23.17
2023-02-08T21:09:19.536Z,22.90
2023-02-08T21:12:22.123Z,23.47
2023-02-08T21:15:26.094Z,22.23
2023-02-08T21:18:28.682Z,23.57
2023-02-08T21:21:31.404Z,23.73
2023-02-08T21:24:34.003Z,22.87
2023-02-08T21:27:36.640Z,23.53
2023-02-08T21:30:41.220Z,24.67
2023-02-08T21:33:45.040Z,24.20
2023-02-08T21:36:47.613Z,24.03
2023-02-08T21:39:50.201Z,22.67
2023-02-08T21:42:52.800Z,24.33
2023-02-08T21:45:56.791Z,24.20
2023-02-08T21:49:17.073Z,23.80
2023-02-08T21:52:36.560Z,25.37
2023-02-08T21:55:39.142Z,24.83
2023-02-08T21:58:41.761Z,25.47
2023-02-08T22:01:45.782Z,25.77
2023-02-08T22:05:07.199Z,25.13
2023-02-08T22:08:09.868Z,25.50
2023-02-08T22:11:14.864Z,26.10
2023-02-08T22:14:17.544Z,25.53
2023-02-08T22:17:21.509Z,24.77
2023-02-08T22:20:24.642Z,25.63
2023-02-08T22:23:27.239Z,25.67
2023-02-08T22:26:29.869Z,24.93
2023-02-08T22:29:32.524Z,26.07
2023-02-08T22:32:36.572Z,25.73
2023-02-08T22:35:40.308Z,25.83
2023-02-08T22:38:42.923Z,26.50
2023-02-08T22:41:45.515Z,25.03
2023-02-08T22:44:48.125Z,25.30
2023-02-08T22:47:52.113Z,26.70
2023-02-08T22:50:55.006Z,24.80
2023-02-08T22:53:57.605Z,25.37
2023-02-08T22:57:00.289Z,25.07
2023-02-08T23:00:03.614Z,27.03
2023-02-08T23:03:07.617Z,26.23
2023-02-08T23:06:11.741Z,26.40
2023-02-08T23:09:14.309Z,26.27
2023-02-08T23:12:16.942Z,25.90
2023-02-08T23:15:19.491Z,26.57
2023-02-08T23:18:23.887Z,27.53
2023-02-08T23:21:26.612Z,25.63
2023-02-08T23:24:29.250Z,27.20
2023-02-08T23:27:31.860Z,26.77
2023-02-08T23:30:34.460Z,25.47
2023-02-08T23:33:38.736Z,25.80
2023-02-08T23:36:41.317Z,26.10
2023-02-08T23:39:43.908Z,26.47
2023-02-08T23:42:46.496Z,26.53
2023-02-08T23:45:49.121Z,26.97
2023-02-08T23:48:53.235Z,26.57
2023-02-08T23:51:55.833Z,27.50
2023-02-08T23:54:58.423Z,27.13
2023-02-08T23:58:01.041Z,27.60
